createdAt,value
2022-08-22T00:00:13.952Z,19.46
2022-08-22T00:02:57.069Z,19.44
2022-08-22T00:02:59.131Z,19.58
2022-08-22T00:03:25.925Z,19.40
2022-08-22T00:06:50.136Z,19.42
2022-08-22T00:10:08.204Z,19.43
2022-08-22T00:13:18.155Z,19.42
2022-08-22T00:16:29.035Z,19.37
2022-08-22T00:19:44.143Z,19.39
2022-08-22T00:23:19.337Z,19.33
2022-08-22T00:26:34.539Z,19.25
2022-08-22T00:29:46.052Z,19.16
2022-08-22T00:32:54.394Z,19.28
2022-08-22T00:36:25.579Z,19.18
2022-08-22T00:39:34.988Z,19.24
2022-08-22T00:42:55.944Z,19.19
2022-08-22T00:46:42.588Z,19.23
2022-08-22T00:50:30.297Z,19.04
2022-08-22T00:53:41.852Z,19.20
2022-08-22T00:57:13.616Z,19.24
2022-08-22T01:00:28.797Z,19.25
2022-08-22T01:03:49.359Z,19.25
2022-08-22T01:07:04.006Z,19.28
2022-08-22T01:10:26.607Z,19.30
2022-08-22T01:13:41.155Z,19.15
2022-08-22T01:16:56.136Z,19.24
2022-08-22T01:20:10.696Z,19.25
2022-08-22T01:23:47.504Z,19.26
2022-08-22T01:27:31.320Z,19.22
2022-08-22T01:30:59.233Z,19.17
2022-08-22T01:34:23.286Z,19.19
2022-08-22T01:37:44.271Z,19.24
2022-08-22T01:41:13.104Z,19.15
2022-08-22T01:44:18.820Z,19.03
2022-08-22T01:47:37.371Z,19.13
2022-08-22T01:50:53.742Z,19.23
2022-08-22T01:54:00.517Z,19.20
2022-08-22T01:57:07.952Z,19.22
2022-08-22T02:00:18.453Z,19.24
2022-08-22T02:03:37.301Z,19.15
2022-08-22T02:06:58.386Z,19.25
2022-08-22T02:11:06.100Z,19.20
2022-08-22T02:14:33.474Z,19.18
2022-08-22T02:18:01.310Z,19.19
2022-08-22T02:21:15.724Z,18.96
2022-08-22T02:24:36.965Z,19.19
2022-08-22T02:28:12.772Z,19.23
2022-08-22T02:31:27.290Z,19.19
2022-08-22T02:35:01.662Z,19.17
2022-08-22T02:38:35.353Z,19.11
2022-08-22T02:41:50.199Z,19.12
2022-08-22T02:44:53.107Z,19.16
2022-08-22T02:48:17.244Z,19.15
2022-08-22T02:51:20.097Z,19.06
2022-08-22T02:54:32.103Z,19.14
2022-08-22T02:58:21.091Z,19.11
2022-08-22T03:01:32.344Z,19.01
2022-08-22T03:04:40.961Z,19.05
2022-08-22T03:08:04.967Z,19.12
2022-08-22T03:11:24.160Z,19.14
2022-08-22T03:14:38.923Z,19.11
2022-08-22T03:17:55.256Z,19.10
2022-08-22T03:21:11.134Z,19.07
2022-08-22T03:24:41.363Z,19.05
2022-08-22T03:27:51.975Z,19.04
2022-08-22T03:31:17.413Z,18.89
2022-08-22T03:34:23.961Z,18.93
2022-08-22T03:37:42.310Z,18.97
2022-08-22T03:41:26.140Z,18.98
2022-08-22T03:44:47.056Z,19.03
2022-08-22T03:48:17.303Z,18.99
2022-08-22T03:51:41.973Z,19.02
2022-08-22T03:54:53.961Z,19.07
2022-08-22T03:58:05.724Z,19.04
2022-08-22T04:01:46.222Z,19.03
2022-08-22T04:05:23.803Z,19.07
2022-08-22T04:08:45.234Z,19.06
2022-08-22T04:12:11.295Z,19.03
2022-08-22T04:15:33.639Z,19.08
2022-08-22T04:19:10.648Z,19.00
2022-08-22T04:23:04.180Z,19.01
2022-08-22T04:26:27.695Z,19.02
2022-08-22T04:30:05.919Z,19.03
2022-08-22T04:33:26.082Z,18.97
2022-08-22T04:36:38.034Z,19.05
2022-08-22T04:39:49.632Z,19.00
2022-08-22T04:43:06.594Z,19.06
2022-08-22T04:46:14.541Z,19.02
2022-08-22T04:49:28.389Z,19.05
2022-08-22T04:52:52.474Z,19.08
2022-08-22T04:56:04.117Z,19.08
2022-08-22T04:59:17.482Z,19.10
2022-08-22T05:02:23.631Z,19.03
2022-08-22T05:05:42.682Z,19.06
2022-08-22T05:08:48.404Z,19.16
2022-08-22T05:12:03.802Z,19.22
2022-08-22T05:15:19.011Z,19.07
2022-08-22T05:18:34.755Z,19.16
2022-08-22T05:21:40.876Z,19.05
2022-08-22T05:24:48.912Z,19.15
2022-08-22T05:28:02.129Z,19.12
2022-08-22T05:31:12.411Z,19.03
2022-08-22T05:34:20.330Z,19.11
2022-08-22T05:37:37.506Z,19.03
2022-08-22T05:40:41.276Z,19.16
2022-08-22T05:43:45.368Z,19.26
2022-08-22T05:47:12.610Z,19.27
2022-08-22T05:50:18.425Z,19.24
2022-08-22T05:53:21.075Z,19.45
2022-08-22T05:56:47.528Z,19.33
2022-08-22T05:59:56.936Z,19.40
2022-08-22T06:03:13.421Z,19.55
2022-08-22T06:06:19.486Z,19.43
2022-08-22T06:09:46.399Z,19.46
2022-08-22T06:13:41.549Z,19.40
2022-08-22T06:17:03.786Z,19.47
2022-08-22T06:20:09.506Z,19.59
2022-08-22T06:23:21.403Z,19.64
2022-08-22T06:26:31.688Z,19.60
2022-08-22T06:29:39.645Z,19.63
2022-08-22T06:32:59.761Z,19.68
2022-08-22T06:36:31.976Z,19.70
2022-08-22T06:39:38.303Z,19.77
2022-08-22T06:42:45.708Z,19.81
2022-08-22T06:45:50.369Z,19.87
2022-08-22T06:48:55.698Z,19.88
2022-08-22T06:52:02.104Z,19.86
2022-08-22T06:55:10.114Z,19.86
2022-08-22T06:58:17.463Z,19.98
2022-08-22T07:01:30.697Z,20.03
2022-08-22T07:04:33.801Z,19.91
2022-08-22T07:07:37.764Z,19.90
2022-08-22T07:10:43.629Z,19.85
2022-08-22T07:13:53.788Z,19.86
2022-08-22T07:16:58.627Z,19.97
2022-08-22T07:20:25.485Z,19.96
2022-08-22T07:23:46.010Z,20.01
2022-08-22T07:27:02.776Z,20.16
2022-08-22T07:30:15.229Z,20.33
2022-08-22T07:33:45.350Z,20.41
2022-08-22T07:37:01.683Z,20.50
2022-08-22T07:40:34.614Z,20.40
2022-08-22T07:43:46.489Z,20.61
2022-08-22T07:47:03.192Z,20.54
2022-08-22T07:50:09.623Z,20.74
2022-08-22T07:53:27.054Z,20.79
2022-08-22T07:56:36.004Z,20.71
2022-08-22T07:59:45.303Z,20.56
2022-08-22T08:02:53.076Z,20.58
2022-08-22T08:05:56.495Z,20.52
2022-08-22T08:08:59.328Z,20.54
2022-08-22T08:12:05.877Z,20.59
2022-08-22T08:15:15.130Z,20.70
2022-08-22T08:18:25.135Z,20.72
2022-08-22T08:21:27.759Z,20.69
2022-08-22T08:24:39.554Z,20.76
2022-08-22T08:28:04.941Z,20.81
2022-08-22T08:31:28.020Z,20.86
2022-08-22T08:34:34.744Z,21.02
2022-08-22T08:37:49.248Z,20.95
2022-08-22T08:41:00.631Z,20.96
2022-08-22T08:44:26.784Z,20.90
2022-08-22T08:47:46.110Z,20.98
2022-08-22T08:51:11.088Z,20.92
2022-08-22T08:54:35.948Z,20.83
2022-08-22T08:57:54.893Z,20.89
2022-08-22T09:01:19.429Z,20.66
2022-08-22T09:04:46.407Z,20.69
2022-08-22T09:08:00.817Z,20.60
2022-08-22T09:11:10.181Z,20.57
2022-08-22T09:14:41.766Z,20.62
2022-08-22T09:18:00.152Z,20.56
2022-08-22T09:21:42.033Z,20.54
2022-08-22T09:25:14.941Z,20.59
2022-08-22T09:28:32.362Z,20.64
2022-08-22T09:32:00.332Z,20.60
2022-08-22T09:35:17.095Z,20.60
2022-08-22T09:38:34.752Z,20.60
2022-08-22T09:42:02.778Z,20.62
2022-08-22T09:45:11.855Z,20.63
2022-08-22T09:48:37.380Z,20.64
2022-08-22T09:51:40.487Z,20.81
2022-08-22T09:55:03.302Z,20.87
2022-08-22T09:58:38.841Z,20.49
2022-08-22T10:01:56.383Z,20.61
2022-08-22T10:05:40.353Z,20.42
2022-08-22T10:08:57.738Z,20.76
2022-08-22T10:12:12.500Z,20.94
2022-08-22T10:15:49.619Z,21.04
2022-08-22T10:19:16.779Z,21.04
2022-08-22T10:22:30.033Z,21.08
2022-08-22T10:25:42.450Z,21.31
2022-08-22T10:28:54.318Z,21.34
2022-08-22T10:32:10.750Z,21.50
2022-08-22T10:35:25.583Z,21.49
2022-08-22T10:38:36.032Z,21.43
2022-08-22T10:42:05.870Z,21.58
2022-08-22T10:45:36.540Z,21.92
2022-08-22T10:48:47.846Z,21.92
2022-08-22T10:52:14.736Z,21.74
2022-08-22T10:55:25.595Z,21.95
2022-08-22T10:58:36.940Z,21.70
2022-08-22T11:02:02.296Z,21.99
2022-08-22T11:05:13.480Z,21.94
2022-08-22T11:08:48.168Z,21.97
2022-08-22T11:12:19.365Z,22.41
2022-08-22T11:16:04.956Z,22.59
2022-08-22T11:19:23.218Z,22.67
2022-08-22T11:22:36.586Z,22.68
2022-08-22T11:25:58.059Z,22.68
2022-08-22T11:29:26.362Z,22.79
2022-08-22T11:32:34.927Z,22.69
2022-08-22T11:35:47.975Z,22.83
2022-08-22T11:39:01.184Z,22.76
2022-08-22T11:42:12.389Z,22.73
2022-08-22T11:45:21.833Z,22.68
2022-08-22T11:48:47.821Z,22.68
2022-08-22T11:52:13.636Z,22.55
2022-08-22T11:55:33.166Z,22.85
2022-08-22T11:58:43.722Z,23.18
2022-08-22T12:02:00.184Z,23.23
2022-08-22T12:05:38.037Z,23.24
2022-08-22T12:08:58.624Z,23.74
2022-08-22T12:13:01.940Z,24.16
2022-08-22T12:16:26.689Z,24.44
2022-08-22T12:20:17.442Z,24.30
2022-08-22T12:23:38.033Z,24.40
2022-08-22T12:27:07.797Z,24.20
2022-08-22T12:30:12.853Z,24.19
2022-08-22T12:33:42.522Z,24.33
2022-08-22T12:37:06.686Z,24.19
2022-08-22T12:40:59.021Z,23.77
2022-08-22T12:44:47.084Z,23.82
2022-08-22T12:47:50.757Z,23.70
2022-08-22T12:54:42.383Z,23.67
2022-08-22T13:02:13.880Z,23.45
2022-08-22T13:05:24.992Z,23.37
2022-08-22T13:08:33.492Z,23.20
2022-08-22T13:11:41.210Z,23.21
2022-08-22T13:14:46.117Z,23.17
2022-08-22T13:17:53.440Z,23.48
2022-08-22T13:20:58.255Z,23.46
2022-08-22T13:24:38.538Z,23.38
2022-08-22T13:27:50.761Z,23.54
2022-08-22T13:30:56.395Z,23.50
2022-08-22T13:34:06.975Z,23.32
2022-08-22T13:37:18.079Z,23.22
2022-08-22T13:40:32.645Z,23.34
2022-08-22T13:44:22.482Z,23.30
2022-08-22T13:47:31.675Z,22.81
2022-08-22T13:50:54.085Z,23.00
2022-08-22T13:54:12.165Z,23.02
2022-08-22T13:57:23.839Z,23.01
2022-08-22T14:00:56.500Z,22.95
2022-08-22T14:04:05.602Z,23.14
2022-08-22T14:07:58.312Z,23.25
2022-08-22T14:11:24.273Z,23.35
2022-08-22T14:14:32.644Z,23.31
2022-08-22T14:17:43.107Z,23.29
2022-08-22T14:20:47.625Z,23.09
2022-08-22T14:23:52.951Z,23.07
2022-08-22T14:27:15.903Z,23.15
2022-08-22T14:30:24.544Z,22.89
2022-08-22T14:33:35.111Z,23.15
2022-08-22T14:37:05.964Z,23.09
2022-08-22T14:40:17.922Z,23.14
2022-08-22T14:43:40.348Z,23.22
2022-08-22T14:46:58.094Z,23.31
2022-08-22T14:50:11.166Z,23.19
2022-08-22T14:53:20.177Z,23.38
2022-08-22T14:56:30.585Z,23.34
2022-08-22T14:59:50.019Z,23.22
2022-08-22T15:02:55.328Z,23.45
2022-08-22T15:06:10.897Z,23.42
2022-08-22T15:09:40.500Z,23.59
2022-08-22T15:12:51.483Z,23.51
2022-08-22T15:15:58.832Z,23.46
2022-08-22T15:19:25.259Z,23.61
2022-08-22T15:22:30.551Z,23.54
2022-08-22T15:25:35.099Z,23.38
2022-08-22T15:28:53.199Z,23.50
2022-08-22T15:32:02.422Z,23.47
2022-08-22T15:35:07.776Z,23.59
2022-08-22T15:38:31.252Z,23.53
2022-08-22T15:41:36.415Z,23.50
2022-08-22T15:44:44.217Z,23.50
2022-08-22T15:47:52.330Z,23.38
2022-08-22T15:51:01.298Z,23.08
2022-08-22T15:54:24.993Z,23.13
2022-08-22T15:57:40.531Z,22.97
2022-08-22T16:01:19.107Z,22.98
2022-08-22T16:05:11.373Z,22.80
2022-08-22T16:08:21.592Z,22.91
2022-08-22T16:11:33.473Z,22.85
2022-08-22T16:14:36.360Z,22.63
2022-08-22T16:17:45.904Z,22.66
2022-08-22T16:20:56.321Z,22.57
2022-08-22T16:23:59.393Z,22.47
2022-08-22T16:27:19.208Z,22.30
2022-08-22T16:30:33.639Z,22.30
2022-08-22T16:33:40.860Z,22.21
2022-08-22T16:36:47.256Z,21.90
2022-08-22T16:39:58.515Z,21.98
2022-08-22T16:43:18.607Z,21.94
2022-08-22T16:46:33.264Z,21.89
2022-08-22T16:50:23.013Z,21.75
2022-08-22T16:53:28.661Z,21.56
2022-08-22T16:57:10.077Z,21.52
2022-08-22T17:00:36.121Z,21.36
2022-08-22T17:04:00.576Z,21.24
2022-08-22T17:07:21.721Z,21.13
2022-08-22T17:10:49.930Z,21.00
2022-08-22T17:14:23.677Z,20.91
2022-08-22T17:17:59.809Z,20.78
2022-08-22T17:21:25.998Z,20.59
2022-08-22T17:24:40.533Z,20.61
2022-08-22T17:27:47.009Z,20.54
2022-08-22T17:31:04.724Z,20.52
2022-08-22T17:34:17.154Z,20.38
2022-08-22T17:37:30.657Z,20.43
2022-08-22T17:41:03.963Z,20.38
2022-08-22T17:44:27.334Z,20.24
2022-08-22T17:48:15.143Z,20.30
2022-08-22T17:51:30.730Z,20.37
2022-08-22T17:54:37.475Z,20.34
2022-08-22T17:57:49.681Z,20.24
2022-08-22T18:01:04.847Z,20.12
2022-08-22T18:04:17.633Z,19.92
2022-08-22T18:07:44.465Z,20.07
2022-08-22T18:11:01.433Z,20.14
2022-08-22T18:14:07.507Z,20.17
2022-08-22T18:17:21.864Z,20.16
2022-08-22T18:20:31.871Z,20.11
2022-08-22T18:23:40.507Z,19.85
2022-08-22T18:27:10.588Z,19.91
2022-08-22T18:30:38.906Z,19.85
2022-08-22T18:33:55.542Z,19.74
2022-08-22T18:37:23.291Z,19.52
2022-08-22T18:40:46.902Z,19.67
2022-08-22T18:43:54.241Z,19.66
2022-08-22T18:47:00.700Z,19.63
2022-08-22T18:50:31.282Z,19.39
2022-08-22T18:53:39.317Z,19.46
2022-08-22T18:56:58.273Z,19.48
2022-08-22T19:00:16.760Z,19.45
2022-08-22T19:03:38.500Z,19.35
2022-08-22T19:07:18.389Z,19.31
2022-08-22T19:10:36.793Z,19.29
2022-08-22T19:14:03.120Z,19.16
2022-08-22T19:17:40.310Z,19.16
2022-08-22T19:21:01.529Z,19.15
2022-08-22T19:24:07.945Z,18.99
2022-08-22T19:27:10.524Z,18.91
2022-08-22T19:30:41.591Z,18.71
2022-08-22T19:33:49.567Z,18.81
2022-08-22T19:37:11.721Z,18.66
2022-08-22T19:40:46.131Z,18.56
2022-08-22T19:43:49.219Z,18.61
2022-08-22T19:47:18.112Z,18.48
2022-08-22T19:50:21.378Z,18.66
2022-08-22T19:53:38.864Z,18.62
2022-08-22T19:56:59.703Z,18.49
2022-08-22T20:00:14.106Z,18.61
2022-08-22T20:03:41.794Z,18.47
2022-08-22T20:07:15.059Z,18.62
2022-08-22T20:10:33.907Z,18.55
2022-08-22T20:13:37.899Z,18.45
2022-08-22T20:17:09.307Z,18.34
2022-08-22T20:20:31.603Z,18.23
2022-08-22T20:23:39.248Z,18.20
2022-08-22T20:27:09.921Z,18.16
2022-08-22T20:30:27.503Z,18.13
2022-08-22T20:33:46.586Z,18.14
2022-08-22T20:37:09.558Z,18.14
2022-08-22T20:40:54.827Z,18.15
2022-08-22T20:44:01.740Z,18.13
2022-08-22T20:47:13.365Z,18.03
2022-08-22T20:50:27.784Z,17.90
2022-08-22T20:53:31.537Z,17.80
2022-08-22T20:56:48.715Z,17.74
2022-08-22T20:59:57.893Z,17.55
2022-08-22T21:03:07.969Z,17.60
2022-08-22T21:06:17.229Z,17.67
2022-08-22T21:09:40.032Z,17.62
2022-08-22T21:12:42.692Z,17.70
2022-08-22T21:15:52.605Z,17.55
2022-08-22T21:18:56.442Z,17.76
2022-08-22T21:22:17.833Z,17.77
2022-08-22T21:25:20.630Z,17.77
2022-08-22T21:28:31.820Z,17.63
2022-08-22T21:31:48.863Z,17.71
2022-08-22T21:34:52.271Z,17.64
2022-08-22T21:37:56.504Z,17.63
2022-08-22T21:41:02.356Z,17.63
2022-08-22T21:44:28.850Z,17.56
2022-08-22T21:47:37.474Z,17.59
2022-08-22T21:50:41.427Z,17.57
2022-08-22T21:53:44.529Z,17.35
2022-08-22T21:56:49.798Z,17.15
2022-08-22T21:59:59.374Z,17.28
2022-08-22T22:03:02.942Z,17.10
2022-08-22T22:06:06.772Z,17.26
2022-08-22T22:09:14.577Z,17.24
2022-08-22T22:12:18.934Z,17.09
2022-08-22T22:15:25.205Z,17.24
2022-08-22T22:18:32.750Z,16.84
2022-08-22T22:21:35.575Z,17.07
2022-08-22T22:24:38.742Z,17.11
2022-08-22T22:27:41.479Z,17.14
2022-08-22T22:30:46.327Z,17.11
2022-08-22T22:33:49.033Z,17.14
2022-08-22T22:36:53.682Z,17.17
2022-08-22T22:39:56.566Z,17.15
2022-08-22T22:42:59.669Z,17.07
2022-08-22T22:46:02.325Z,16.88
2022-08-22T22:49:05.947Z,16.89
2022-08-22T22:52:08.620Z,16.98
2022-08-22T22:55:24.412Z,16.82
2022-08-22T22:58:29.222Z,16.97
2022-08-22T23:01:33.401Z,16.93
2022-08-22T23:04:39.333Z,16.71
2022-08-22T23:07:42.411Z,16.76
2022-08-22T23:10:45.083Z,16.76
2022-08-22T23:13:48.559Z,16.87
2022-08-22T23:16:51.283Z,16.71
2022-08-22T23:19:54.407Z,16.90
2022-08-22T23:22:57.098Z,16.86
2022-08-22T23:26:00.115Z,16.75
2022-08-22T23:29:03.031Z,16.67
2022-08-22T23:32:07.098Z,16.71
2022-08-22T23:35:10.149Z,16.55
2022-08-22T23:38:13.376Z,16.61
2022-08-22T23:41:18.432Z,16.58
2022-08-22T23:44:24.398Z,16.59
2022-08-22T23:47:27.093Z,16.48
2022-08-22T23:50:30.102Z,16.45
2022-08-22T23:53:33.979Z,16.68
2022-08-22T23:56:42.385Z,16.62
2022-08-22T23:59:48.050Z,16.51
